Hutsonville, Illinois
Current Conditions -  °F | °C
As of 6:15 PM on Wednesday 26 Nov 2014 (Local Time) from KRSV Reporting Station
Light Snow Light Snow  
Wind Chill: 28°   Ceiling: 1900
Heat Index: 33°   Visibility: 7mi
Dew Point: 29°   Wind: 6mph
Humidity: 86%   Direction: 280°W
Pressure: 30.09"   Gusts: NA
Location:  39.11°N, 87.66°W
Report Text: KRSV 270015Z AUTO 28005KT 7SM -SN BKN019 OVC026 01/M01 A3009 RMK AO2 T00071014
Loading
Personal Weather Stations






























Interactive Weather Map New forecast layout! Learn more

10-Day Weather Forecast

Advertisements
Track Severe Weather on mobile